Time;durP1;ratioP1;P1;durP2;ratioP2;P2;SDS_P1;SDS_P2;PMS_P1;PMS_P2;Temp;Humidity;BMP_temperature;BMP_pressure;BME280_temperature;BME280_humidity;BME280_pressure;Samples;Min_cycle;Max_cycle;Signal;HPM_P1;HPM_P2
2021/06/03 00:00:06;;;;;;;7.70;6.77;;;18.80;98.30;;;;;;4046451;29;20578;-85
2021/06/03 00:02:10;;;;;;;8.40;7.60;;;18.70;98.30;;;;;;4048879;29;20555;-85
2021/06/03 00:04:13;;;;;;;9.63;7.30;;;18.80;98.30;;;;;;4047045;29;20528;-85
2021/06/03 00:06:17;;;;;;;8.30;7.10;;;18.70;98.30;;;;;;4048550;29;20662;-86
2021/06/03 00:08:22;;;;;;;7.97;7.13;;;18.70;98.30;;;;;;4047291;29;20911;-85
2021/06/03 00:10:28;;;;;;;9.07;7.53;;;18.70;98.30;;;;;;4046333;29;20561;-86
2021/06/03 00:12:30;;;;;;;8.67;7.80;;;18.70;98.30;;;;;;4048157;29;20858;-85
2021/06/03 00:14:33;;;;;;;8.17;7.40;;;18.60;98.30;;;;;;4046535;29;20488;-84
2021/06/03 00:16:37;;;;;;;7.80;7.10;;;18.60;98.30;;;;;;4046550;29;20486;-85
2021/06/03 00:18:41;;;;;;;7.00;6.33;;;18.60;98.30;;;;;;4047501;29;20514;-84
2021/06/03 00:20:44;;;;;;;7.27;6.67;;;18.60;98.30;;;;;;4046504;29;20472;-84
2021/06/03 00:22:46;;;;;;;9.50;7.20;;;18.50;98.30;;;;;;4049499;29;20523;-84
2021/06/03 00:24:49;;;;;;;8.30;7.33;;;18.50;98.30;;;;;;4048996;29;20575;-85
2021/06/03 00:26:51;;;;;;;7.90;6.47;;;18.50;98.30;;;;;;4051061;29;20994;-85
2021/06/03 00:28:54;;;;;;;7.73;6.93;;;18.40;98.30;;;;;;4051948;29;20990;-85
2021/06/03 00:30:56;;;;;;;7.50;6.80;;;18.40;98.30;;;;;;4060881;29;20479;-85
2021/06/03 00:33:02;;;;;;;7.10;6.47;;;18.40;98.30;;;;;;4050784;29;20528;-85
2021/06/03 00:35:06;;;;;;;7.97;7.27;;;18.40;98.30;;;;;;4050032;29;20499;-85
2021/06/03 00:37:09;;;;;;;8.50;7.80;;;18.40;98.30;;;;;;4050854;29;20483;-85
2021/06/03 00:39:11;;;;;;;9.13;6.57;;;18.40;98.30;;;;;;4050289;29;20475;-85
2021/06/03 00:41:14;;;;;;;7.60;6.77;;;18.40;98.30;;;;;;4049866;29;20559;-85
2021/06/03 00:43:17;;;;;;;7.83;7.03;;;18.40;98.30;;;;;;4049218;29;20498;-85
2021/06/03 00:45:26;;;;;;;8.07;7.27;;;18.30;98.30;;;;;;4048489;29;20471;-85
2021/06/03 00:47:29;;;;;;;7.10;6.40;;;18.30;98.30;;;;;;4048592;29;20543;-85
2021/06/03 00:49:33;;;;;;;7.60;7.00;;;18.30;98.30;;;;;;4049671;29;20892;-85
2021/06/03 00:51:36;;;;;;;8.90;7.00;;;18.30;98.30;;;;;;4048356;29;20476;-84
2021/06/03 00:53:42;;;;;;;7.47;6.60;;;18.20;98.30;;;;;;4050197;29;20487;-85
2021/06/03 00:55:47;;;;;;;9.47;6.43;;;18.30;98.30;;;;;;4049298;29;20472;-85
2021/06/03 00:57:50;;;;;;;8.53;6.80;;;18.30;98.30;;;;;;4050584;29;20498;-85
2021/06/03 00:59:53;;;;;;;7.87;7.10;;;18.30;98.30;;;;;;4050488;29;20828;-85
2021/06/03 01:01:55;;;;;;;8.30;7.50;;;18.30;98.30;;;;;;4049747;29;20480;-85
2021/06/03 01:03:59;;;;;;;8.00;7.27;;;18.20;98.30;;;;;;4049355;29;21021;-85
2021/06/03 01:06:06;;;;;;;12.00;6.77;;;18.20;98.30;;;;;;4049439;29;20781;-85
2021/06/03 01:08:12;;;;;;;8.30;6.70;;;18.20;98.30;;;;;;4050343;29;20476;-85
2021/06/03 01:10:20;;;;;;;7.60;6.90;;;18.20;98.30;;;;;;4048945;29;20490;-85
2021/06/03 01:12:32;;;;;;;8.23;6.30;;;18.30;98.30;;;;;;4049910;29;20475;-85
2021/06/03 01:14:38;;;;;;;7.33;6.43;;;18.20;98.30;;;;;;4049066;29;20494;-85
2021/06/03 01:16:44;;;;;;;8.10;7.30;;;18.30;98.30;;;;;;4049038;29;20471;-85
2021/06/03 01:18:47;;;;;;;9.40;6.50;;;18.20;98.30;;;;;;4048998;29;20507;-85
2021/06/03 01:20:52;;;;;;;7.13;6.53;;;18.20;98.30;;;;;;4050546;29;20476;-85
2021/06/03 01:23:04;;;;;;;7.93;7.23;;;18.20;98.30;;;;;;4049867;29;20472;-85
2021/06/03 01:25:11;;;;;;;7.90;7.10;;;18.20;98.30;;;;;;4049194;29;20499;-85
2021/06/03 01:27:17;;;;;;;7.97;7.17;;;18.20;98.30;;;;;;4049255;29;21129;-85
2021/06/03 01:29:20;;;;;;;7.57;6.80;;;18.20;98.30;;;;;;4050203;29;20961;-85
2021/06/03 01:31:23;;;;;;;7.80;7.10;;;18.10;98.30;;;;;;4050488;29;20544;-85
2021/06/03 01:33:29;;;;;;;7.67;6.90;;;18.10;98.30;;;;;;4049543;29;20840;-85
2021/06/03 01:35:35;;;;;;;9.10;8.13;;;18.10;98.30;;;;;;4057242;29;20472;-85
2021/06/03 01:37:39;;;;;;;8.23;7.43;;;18.10;98.30;;;;;;4049646;29;20563;-85
2021/06/03 01:39:44;;;;;;;7.53;6.70;;;18.10;98.30;;;;;;4048544;29;20479;-85
2021/06/03 01:41:48;;;;;;;7.40;6.70;;;18.10;98.30;;;;;;4049298;29;20476;-85
2021/06/03 01:43:50;;;;;;;7.40;6.70;;;18.00;98.30;;;;;;4048951;29;20539;-85
2021/06/03 01:45:54;;;;;;;9.17;7.80;;;18.00;98.30;;;;;;4049337;29;20602;-84
2021/06/03 01:47:57;;;;;;;8.03;6.97;;;18.00;98.30;;;;;;4049108;29;20476;-85
2021/06/03 01:49:59;;;;;;;8.47;7.67;;;18.10;98.30;;;;;;4049965;29;20504;-85
2021/06/03 01:52:04;;;;;;;8.07;7.27;;;18.00;98.30;;;;;;4050101;29;21144;-84
2021/06/03 01:54:07;;;;;;;8.93;6.73;;;18.00;98.30;;;;;;4048419;29;20487;-85
2021/06/03 01:56:12;;;;;;;7.27;6.60;;;18.00;98.30;;;;;;4049199;29;20569;-84
2021/06/03 01:58:17;;;;;;;9.03;7.37;;;18.00;98.30;;;;;;4049012;29;20474;-85
2021/06/03 02:00:22;;;;;;;7.77;6.83;;;18.00;98.30;;;;;;4048425;29;20555;-85
2021/06/03 02:02:24;;;;;;;7.40;6.70;;;18.00;98.30;;;;;;4048988;29;20558;-85
2021/06/03 02:04:27;;;;;;;8.10;7.30;;;17.90;98.30;;;;;;4048519;29;20495;-85
2021/06/03 02:06:29;;;;;;;8.47;7.67;;;18.00;98.30;;;;;;4048128;29;20478;-85
2021/06/03 02:08:32;;;;;;;8.30;7.50;;;18.00;98.30;;;;;;4050131;29;20502;-84
2021/06/03 02:10:34;;;;;;;7.57;6.87;;;18.00;98.30;;;;;;4048429;29;20841;-84
2021/06/03 02:12:43;;;;;;;9.10;6.60;;;17.90;98.30;;;;;;4049070;29;20483;-84
2021/06/03 02:14:50;;;;;;;7.33;6.73;;;17.90;98.30;;;;;;4047762;29;20526;-84
2021/06/03 02:16:56;;;;;;;10.00;7.07;;;17.90;98.30;;;;;;4048435;29;20468;-84
2021/06/03 02:19:02;;;;;;;8.73;7.83;;;17.90;98.30;;;;;;4048321;29;20523;-85
2021/06/03 02:21:06;;;;;;;7.60;6.90;;;17.90;98.30;;;;;;4048441;29;20477;-85
2021/06/03 02:23:10;;;;;;;8.40;7.60;;;17.80;98.30;;;;;;4048909;29;21008;-85
2021/06/03 02:25:13;;;;;;;8.37;7.47;;;17.80;98.30;;;;;;4048158;29;20491;-85
2021/06/03 02:27:16;;;;;;;7.77;7.07;;;17.80;98.30;;;;;;4048124;29;20830;-85
2021/06/03 02:29:19;;;;;;;8.63;6.90;;;17.80;98.30;;;;;;4049559;29;20812;-85
2021/06/03 02:31:24;;;;;;;8.50;7.80;;;17.80;98.30;;;;;;4048681;29;20486;-85
2021/06/03 02:33:26;;;;;;;7.63;6.93;;;17.80;98.30;;;;;;4048438;29;20978;-85
2021/06/03 02:35:29;;;;;;;9.30;8.40;;;17.90;98.30;;;;;;4048726;29;20471;-85
2021/06/03 02:37:44;;;;;;;7.83;7.10;;;17.80;98.30;;;;;;4049949;29;20468;-85
2021/06/03 02:39:48;;;;;;;8.40;7.27;;;17.70;98.30;;;;;;4054840;29;20474;-85
2021/06/03 02:41:51;;;;;;;8.60;7.70;;;17.60;98.30;;;;;;4056669;29;20914;-85
2021/06/03 02:43:53;;;;;;;7.57;6.87;;;17.60;98.30;;;;;;4047995;29;20856;-85
2021/06/03 02:45:56;;;;;;;10.37;8.17;;;17.60;98.30;;;;;;4045606;29;20464;-84
2021/06/03 02:48:01;;;;;;;8.40;7.60;;;17.60;98.30;;;;;;4045280;29;20480;-84
2021/06/03 02:50:06;;;;;;;7.83;7.13;;;17.70;98.30;;;;;;4048549;29;20486;-85
2021/06/03 02:52:08;;;;;;;9.27;8.30;;;17.70;98.30;;;;;;4049113;29;20488;-85
2021/06/03 02:54:11;;;;;;;7.87;7.03;;;17.60;98.30;;;;;;4047149;29;20499;-85
2021/06/03 02:56:14;;;;;;;8.47;7.50;;;17.60;98.30;;;;;;4049739;29;20483;-84
2021/06/03 02:58:17;;;;;;;8.30;7.50;;;17.60;98.30;;;;;;4050478;29;20476;-85
2021/06/03 03:00:25;;;;;;;8.40;7.60;;;17.60;98.30;;;;;;4047523;29;20562;-85
2021/06/03 03:02:31;;;;;;;9.47;8.20;;;17.50;98.30;;;;;;4047840;29;20472;-85
2021/06/03 03:04:35;;;;;;;8.73;7.90;;;17.60;98.30;;;;;;4046827;29;20618;-85
2021/06/03 03:06:38;;;;;;;8.10;7.40;;;17.60;98.30;;;;;;4047658;29;20587;-84
2021/06/03 03:08:42;;;;;;;10.87;7.70;;;17.50;98.30;;;;;;4046961;29;20487;-85
2021/06/03 03:10:47;;;;;;;9.80;8.20;;;17.50;98.30;;;;;;4048333;29;20476;-85
2021/06/03 03:12:50;;;;;;;8.47;7.63;;;17.50;98.30;;;;;;4047249;29;20476;-85
2021/06/03 03:14:52;;;;;;;7.87;6.97;;;17.40;98.30;;;;;;4047650;29;20510;-84
2021/06/03 03:16:55;;;;;;;7.63;6.83;;;17.40;98.30;;;;;;4047930;29;20479;-85
2021/06/03 03:18:58;;;;;;;9.33;7.67;;;17.40;98.30;;;;;;4044998;29;20938;-84
2021/06/03 03:21:02;;;;;;;8.60;7.77;;;17.40;98.30;;;;;;4047650;29;20472;-85
2021/06/03 03:23:06;;;;;;;9.47;7.90;;;17.40;98.30;;;;;;4048024;29;20986;-84
2021/06/03 03:25:11;;;;;;;9.60;7.80;;;17.50;98.30;;;;;;4047854;29;20507;-85
2021/06/03 03:27:13;;;;;;;8.63;7.73;;;17.50;98.30;;;;;;4047571;29;20494;-86
2021/06/03 03:29:16;;;;;;;11.73;8.23;;;17.30;98.30;;;;;;4048304;29;20834;-85
2021/06/03 03:31:18;;;;;;;8.23;7.40;;;17.30;98.30;;;;;;4048415;29;20862;-85
2021/06/03 03:33:21;;;;;;;9.07;8.17;;;17.40;98.30;;;;;;4048237;29;20479;-86
2021/06/03 03:35:24;;;;;;;8.20;7.40;;;17.40;98.30;;;;;;4046913;29;20554;-85
2021/06/03 03:37:28;;;;;;;9.53;7.30;;;17.40;98.30;;;;;;4048083;29;20957;-85
2021/06/03 03:39:31;;;;;;;8.33;7.53;;;17.30;98.30;;;;;;4047709;29;20488;-85
2021/06/03 03:41:33;;;;;;;8.30;7.50;;;17.40;98.30;;;;;;4048404;29;20476;-86
2021/06/03 03:43:36;;;;;;;8.80;7.90;;;17.40;98.30;;;;;;4047849;29;20496;-86
2021/06/03 03:45:39;;;;;;;8.47;7.10;;;17.40;98.30;;;;;;4058023;29;20471;-86
2021/06/03 03:47:44;;;;;;;8.30;7.60;;;17.50;98.30;;;;;;4047386;29;20523;-86
2021/06/03 03:49:47;;;;;;;10.10;7.73;;;17.50;98.30;;;;;;4048491;29;20479;-86
2021/06/03 03:51:50;;;;;;;8.13;7.43;;;17.50;98.30;;;;;;4047029;29;20523;-86
2021/06/03 03:53:54;;;;;;;11.20;8.20;;;17.40;98.30;;;;;;4046944;29;20496;-86
2021/06/03 03:55:56;;;;;;;9.03;7.73;;;17.50;98.30;;;;;;4047389;29;21026;-85
2021/06/03 03:57:59;;;;;;;9.13;8.17;;;17.50;98.30;;;;;;4051882;29;20472;-85
2021/06/03 04:00:03;;;;;;;8.30;7.50;;;17.60;98.30;;;;;;4052846;29;20482;-85
2021/06/03 04:02:05;;;;;;;11.93;8.10;;;17.60;98.30;;;;;;4052889;29;20486;-85
2021/06/03 04:04:08;;;;;;;9.23;8.17;;;17.60;98.30;;;;;;4053219;29;20531;-85
2021/06/03 04:06:10;;;;;;;9.70;8.43;;;17.70;98.30;;;;;;4054515;29;20502;-85
2021/06/03 04:08:13;;;;;;;9.47;7.73;;;17.70;98.30;;;;;;4053736;29;20510;-86
2021/06/03 04:10:18;;;;;;;9.30;7.60;;;17.80;98.30;;;;;;4052981;29;20832;-85
2021/06/03 04:12:22;;;;;;;8.70;7.90;;;17.70;98.30;;;;;;4053191;29;20467;-85
2021/06/03 04:14:24;;;;;;;8.13;7.43;;;17.70;98.30;;;;;;4052401;29;20506;-85
2021/06/03 04:16:27;;;;;;;10.30;8.20;;;17.60;98.30;;;;;;4050004;29;20848;-85
2021/06/03 04:18:30;;;;;;;8.53;7.73;;;17.70;98.30;;;;;;4053311;29;20475;-86
2021/06/03 04:20:34;;;;;;;8.40;7.60;;;17.80;98.30;;;;;;4053911;29;20829;-86
2021/06/03 04:22:37;;;;;;;8.40;7.60;;;17.70;98.30;;;;;;4052505;29;20814;-85
2021/06/03 04:24:39;;;;;;;9.13;8.23;;;17.80;98.30;;;;;;4051135;29;20499;-86
2021/06/03 04:26:43;;;;;;;8.30;7.60;;;17.90;98.30;;;;;;4052243;29;20530;-85
2021/06/03 04:28:46;;;;;;;7.83;7.13;;;17.90;98.30;;;;;;4053426;29;21101;-85
2021/06/03 04:30:49;;;;;;;8.97;8.07;;;17.90;98.30;;;;;;4053235;29;20490;-86
2021/06/03 04:32:51;;;;;;;9.00;8.20;;;17.90;98.30;;;;;;4052596;29;20479;-86
2021/06/03 04:34:54;;;;;;;8.67;7.87;;;17.90;98.30;;;;;;4051913;29;20582;-85
2021/06/03 04:36:57;;;;;;;9.40;8.17;;;17.90;98.30;;;;;;4052924;29;20544;-86
2021/06/03 04:38:59;;;;;;;8.07;7.37;;;17.90;98.30;;;;;;4052979;29;20471;-85
2021/06/03 04:41:02;;;;;;;11.30;8.00;;;18.00;98.30;;;;;;4052495;29;20471;-86
2021/06/03 04:43:07;;;;;;;9.23;8.43;;;18.00;98.30;;;;;;4053048;29;20483;-86
2021/06/03 04:45:12;;;;;;;10.80;8.53;;;18.00;98.30;;;;;;4052501;29;20492;-86
2021/06/03 04:47:15;;;;;;;9.53;7.63;;;18.10;98.30;;;;;;4053393;29;21120;-86
2021/06/03 04:49:17;;;;;;;9.93;8.30;;;18.10;98.30;;;;;;4054903;29;21102;-85
2021/06/03 04:51:20;;;;;;;8.47;7.67;;;18.10;98.30;;;;;;4062403;29;20468;-85
2021/06/03 04:53:23;;;;;;;7.73;7.00;;;18.10;98.30;;;;;;4053340;29;21004;-85
2021/06/03 04:55:25;;;;;;;8.93;8.03;;;18.10;98.30;;;;;;4052221;29;20478;-85
2021/06/03 04:57:29;;;;;;;8.97;8.07;;;18.10;98.30;;;;;;4052664;29;20479;-85
2021/06/03 04:59:33;;;;;;;9.07;8.17;;;18.20;98.30;;;;;;4053446;29;21020;-86
2021/06/03 05:01:35;;;;;;;8.70;7.70;;;18.30;98.30;;;;;;4052140;29;20986;-86
2021/06/03 05:03:38;;;;;;;9.60;7.87;;;18.30;98.30;;;;;;4053185;29;20562;-85
2021/06/03 05:05:41;;;;;;;8.40;7.70;;;18.30;98.30;;;;;;4052134;29;20887;-86
2021/06/03 05:07:46;;;;;;;12.93;8.20;;;18.30;98.30;;;;;;4051776;29;20475;-85
2021/06/03 05:09:49;;;;;;;8.63;7.83;;;18.30;98.30;;;;;;4049532;29;20480;-86
2021/06/03 05:11:51;;;;;;;8.50;7.60;;;18.30;98.30;;;;;;4049262;29;20468;-86
2021/06/03 05:13:54;;;;;;;8.37;7.57;;;18.50;98.30;;;;;;4050178;29;20574;-85
2021/06/03 05:15:57;;;;;;;10.40;7.80;;;18.40;98.30;;;;;;4049472;29;20854;-85
2021/06/03 05:18:00;;;;;;;8.40;7.50;;;18.50;98.30;;;;;;4050119;29;20472;-85
2021/06/03 05:20:07;;;;;;;8.10;7.00;;;18.60;98.30;;;;;;4049839;29;20508;-85
2021/06/03 05:22:10;;;;;;;8.20;7.50;;;18.60;98.30;;;;;;4049314;29;20472;-85
2021/06/03 05:24:12;;;;;;;8.57;7.80;;;18.70;98.30;;;;;;4046229;29;20591;-84
2021/06/03 05:26:15;;;;;;;7.60;7.00;;;18.70;98.30;;;;;;4049086;29;20484;-85
2021/06/03 05:28:18;;;;;;;12.33;7.90;;;18.70;98.30;;;;;;4047308;29;21070;-84
2021/06/03 05:30:22;;;;;;;7.77;6.97;;;18.70;98.30;;;;;;4051306;29;20476;-85
2021/06/03 05:32:26;;;;;;;8.33;7.57;;;18.70;98.30;;;;;;4048524;29;20471;-84
2021/06/03 05:34:28;;;;;;;7.80;7.10;;;18.70;98.30;;;;;;4050159;29;20576;-83
2021/06/03 05:36:31;;;;;;;10.43;7.57;;;18.70;98.30;;;;;;4050502;29;20477;-86
2021/06/03 05:38:33;;;;;;;8.70;7.90;;;18.70;98.30;;;;;;4050939;29;20572;-86
2021/06/03 05:40:36;;;;;;;7.80;7.10;;;18.60;98.30;;;;;;4053046;29;20482;-86
2021/06/03 05:42:41;;;;;;;8.73;7.93;;;18.80;98.30;;;;;;4052596;29;20535;-86
2021/06/03 05:44:44;;;;;;;8.57;7.87;;;18.90;98.30;;;;;;4048587;29;20496;-85
2021/06/03 05:46:46;;;;;;;10.90;7.40;;;18.80;98.30;;;;;;4046038;29;20487;-84
2021/06/03 05:48:50;;;;;;;11.07;7.77;;;18.80;98.30;;;;;;4052483;29;20555;-85
2021/06/03 05:50:53;;;;;;;8.87;7.80;;;18.80;98.30;;;;;;4049565;29;20481;-85
2021/06/03 05:52:55;;;;;;;8.97;8.17;;;18.80;98.30;;;;;;4052649;29;20476;-86
2021/06/03 05:54:58;;;;;;;8.60;7.80;;;18.80;98.30;;;;;;4056902;29;20506;-84
2021/06/03 05:57:01;;;;;;;9.13;7.60;;;18.70;98.30;;;;;;4055364;29;20483;-86
2021/06/03 05:59:04;;;;;;;8.47;7.77;;;18.70;98.30;;;;;;4052780;29;20488;-86
2021/06/03 06:01:07;;;;;;;8.37;7.57;;;18.70;98.30;;;;;;4049158;29;20484;-87
2021/06/03 06:03:14;;;;;;;8.40;7.53;;;18.70;98.30;;;;;;4052053;29;20902;-86
2021/06/03 06:07:41;;;;;;;8.00;7.30;;;18.80;98.30;;;;;;4044272;29;20871;-85
2021/06/03 06:09:43;;;;;;;8.30;7.60;;;18.80;98.30;;;;;;4052503;29;20504;-85
2021/06/03 06:11:46;;;;;;;9.23;7.17;;;18.80;98.30;;;;;;4052053;29;20555;-86
2021/06/03 06:13:51;;;;;;;10.90;8.13;;;18.80;98.30;;;;;;4052209;29;20504;-86
2021/06/03 06:15:53;;;;;;;9.10;8.27;;;18.80;98.30;;;;;;4049976;29;20472;-85
2021/06/03 06:17:56;;;;;;;9.17;8.20;;;18.80;98.30;;;;;;4051946;29;20472;-86
2021/06/03 06:19:59;;;;;;;8.57;7.80;;;18.80;98.30;;;;;;4050450;29;20583;-86
2021/06/03 06:22:03;;;;;;;9.00;8.03;;;18.90;98.30;;;;;;4051818;29;20480;-85
2021/06/03 06:24:07;;;;;;;8.23;7.37;;;18.80;98.30;;;;;;4051200;29;20543;-85
2021/06/03 06:26:10;;;;;;;9.00;8.10;;;18.90;98.30;;;;;;4051748;29;20503;-86
2021/06/03 06:28:14;;;;;;;9.17;8.20;;;18.90;98.30;;;;;;4051853;29;20475;-85
2021/06/03 06:30:18;;;;;;;8.77;7.87;;;18.90;98.30;;;;;;4051299;29;21202;-87
2021/06/03 06:32:23;;;;;;;9.33;8.53;;;19.00;98.30;;;;;;4049843;29;20479;-86
2021/06/03 06:34:25;;;;;;;10.00;8.97;;;19.10;98.30;;;;;;4038858;29;20497;-84
2021/06/03 06:36:27;;;;;;;8.70;8.00;;;19.10;98.30;;;;;;4047248;29;20548;-84
2021/06/03 06:38:32;;;;;;;8.57;7.77;;;19.20;98.30;;;;;;4052490;29;20602;-84
2021/06/03 06:40:35;;;;;;;14.50;9.90;;;19.10;98.30;;;;;;4048713;29;20511;-85
2021/06/03 06:42:38;;;;;;;9.60;8.17;;;19.20;98.30;;;;;;4048778;29;20496;-85
2021/06/03 06:44:40;;;;;;;8.43;7.50;;;19.30;98.30;;;;;;4049390;29;20559;-84
2021/06/03 06:46:44;;;;;;;9.73;8.33;;;19.30;98.00;;;;;;4047008;29;20584;-85
2021/06/03 06:48:46;;;;;;;8.40;7.70;;;19.30;98.30;;;;;;4048865;29;20479;-88
2021/06/03 06:50:51;;;;;;;9.33;8.43;;;19.20;98.20;;;;;;4049127;29;20542;-87
2021/06/03 06:52:54;;;;;;;8.73;8.03;;;19.30;98.00;;;;;;4050433;29;21222;-86
2021/06/03 06:54:59;;;;;;;11.40;8.73;;;19.30;98.30;;;;;;4049075;29;20500;-88
2021/06/03 06:57:01;;;;;;;8.60;7.80;;;19.20;98.30;;;;;;4049691;29;20486;-87
2021/06/03 06:59:04;;;;;;;9.17;8.23;;;19.30;98.30;;;;;;4049307;29;20488;-87
2021/06/03 07:01:06;;;;;;;8.70;7.90;;;19.30;98.30;;;;;;4049288;29;20522;-88
2021/06/03 07:03:10;;;;;;;10.80;8.90;;;19.40;98.30;;;;;;4049595;29;21004;-86
2021/06/03 07:05:13;;;;;;;8.87;7.60;;;19.30;98.20;;;;;;4049177;29;20567;-87
2021/06/03 07:07:17;;;;;;;9.03;8.23;;;19.30;98.10;;;;;;4049426;29;20496;-87
2021/06/03 07:09:21;;;;;;;9.17;8.27;;;19.20;98.10;;;;;;4049455;29;20479;-87
2021/06/03 07:11:25;;;;;;;8.73;7.70;;;19.20;98.30;;;;;;4049367;29;21028;-87
2021/06/03 07:13:47;;;;;;;8.47;7.70;;;19.30;98.30;;;;;;4049216;29;20887;-87
2021/06/03 07:15:50;;;;;;;12.00;8.73;;;19.30;98.20;;;;;;4048567;29;20512;-87
2021/06/03 07:17:54;;;;;;;8.37;7.67;;;19.30;98.30;;;;;;4049383;29;20985;-88
2021/06/03 07:19:57;;;;;;;11.17;8.07;;;19.30;98.30;;;;;;4049422;29;20472;-87
2021/06/03 07:22:00;;;;;;;9.37;8.40;;;19.40;98.30;;;;;;4048836;29;20487;-87
2021/06/03 07:24:02;;;;;;;8.50;7.60;;;19.50;98.30;;;;;;4048978;29;20857;-85
2021/06/03 07:26:05;;;;;;;9.20;8.10;;;19.60;98.00;;;;;;4048448;29;20998;-87
2021/06/03 07:28:10;;;;;;;9.73;7.30;;;19.50;98.10;;;;;;4049515;29;20978;-87
2021/06/03 07:30:14;;;;;;;8.80;7.90;;;19.40;97.80;;;;;;4049394;29;20504;-86
2021/06/03 07:32:17;;;;;;;8.87;8.07;;;19.50;98.30;;;;;;4049726;29;20561;-87
2021/06/03 07:34:20;;;;;;;8.70;7.90;;;19.50;97.80;;;;;;4048415;29;20519;-87
2021/06/03 07:36:23;;;;;;;8.20;7.50;;;19.60;98.30;;;;;;4048771;29;20478;-87
2021/06/03 07:38:25;;;;;;;8.60;7.80;;;19.70;97.80;;;;;;4048839;29;20472;-87
2021/06/03 07:40:30;;;;;;;8.63;7.87;;;19.80;97.80;;;;;;4049052;29;20559;-87
2021/06/03 07:42:32;;;;;;;8.97;8.07;;;19.80;97.20;;;;;;4048952;29;20480;-87
2021/06/03 07:44:36;;;;;;;8.73;7.90;;;19.80;97.40;;;;;;4048392;29;21097;-87
2021/06/03 07:46:39;;;;;;;9.17;8.33;;;19.90;97.10;;;;;;4049023;29;20503;-87
2021/06/03 07:48:42;;;;;;;9.73;8.00;;;20.00;97.20;;;;;;4049069;29;20475;-87
2021/06/03 07:50:45;;;;;;;8.77;7.87;;;20.00;96.90;;;;;;4048805;29;20494;-87
2021/06/03 07:52:47;;;;;;;10.03;8.23;;;20.10;96.70;;;;;;4048863;29;21032;-88
2021/06/03 07:54:50;;;;;;;7.60;6.90;;;20.10;96.20;;;;;;4047927;29;20484;-87
2021/06/03 07:56:53;;;;;;;8.40;7.50;;;20.20;95.60;;;;;;4048988;29;20848;-88
2021/06/03 07:58:57;;;;;;;9.43;8.13;;;20.20;96.10;;;;;;4049061;29;20567;-87
2021/06/03 08:01:01;;;;;;;8.10;7.30;;;20.30;94.90;;;;;;4048898;29;20575;-87
2021/06/03 08:03:05;;;;;;;9.23;8.43;;;20.30;95.80;;;;;;4048433;29;20870;-87
2021/06/03 08:05:08;;;;;;;8.33;7.63;;;20.50;95.30;;;;;;4047857;29;20488;-87
2021/06/03 08:07:11;;;;;;;8.03;7.30;;;20.60;95.10;;;;;;4048553;29;20543;-89
2021/06/03 08:09:13;;;;;;;8.90;8.07;;;20.70;95.00;;;;;;4049066;29;20475;-88
2021/06/03 08:11:16;;;;;;;7.80;7.10;;;20.70;94.60;;;;;;4049115;29;20467;-88
2021/06/03 08:13:19;;;;;;;8.53;7.70;;;20.90;95.10;;;;;;4048756;29;20504;-88
2021/06/03 08:15:22;;;;;;;13.73;10.77;;;20.90;94.00;;;;;;4048403;29;20482;-88
2021/06/03 08:17:26;;;;;;;13.40;8.47;;;21.10;94.60;;;;;;4049150;29;20504;-88
2021/06/03 08:19:29;;;;;;;8.57;7.70;;;21.10;93.90;;;;;;4048689;29;20478;-88
2021/06/03 08:21:33;;;;;;;9.00;7.67;;;21.30;93.40;;;;;;4049381;29;20927;-89
2021/06/03 08:23:36;;;;;;;8.03;7.23;;;21.30;93.20;;;;;;4048487;29;20578;-88
2021/06/03 08:25:39;;;;;;;12.20;8.03;;;21.40;93.20;;;;;;4048525;29;20484;-89
2021/06/03 08:27:42;;;;;;;8.73;6.97;;;21.50;93.10;;;;;;4048654;29;20500;-88
2021/06/03 08:29:44;;;;;;;8.33;7.53;;;21.50;93.50;;;;;;4048784;29;20480;-88
2021/06/03 08:31:48;;;;;;;8.87;7.57;;;21.60;92.20;;;;;;4048778;29;20496;-87
2021/06/03 08:33:53;;;;;;;8.47;7.77;;;21.60;91.60;;;;;;4048513;29;20506;-87
2021/06/03 08:35:56;;;;;;;9.77;7.83;;;21.60;92.30;;;;;;4048411;29;20472;-88
2021/06/03 08:38:02;;;;;;;9.37;8.47;;;21.60;92.50;;;;;;4049125;29;20467;-88
2021/06/03 08:40:06;;;;;;;8.20;7.23;;;21.80;92.70;;;;;;4048666;29;20488;-88
2021/06/03 08:42:13;;;;;;;8.63;7.73;;;21.90;92.50;;;;;;4049017;29;20476;-87
2021/06/03 08:44:15;;;;;;;10.47;7.80;;;22.10;92.40;;;;;;4049174;29;20578;-87
2021/06/03 08:46:18;;;;;;;8.70;7.80;;;22.20;90.90;;;;;;4051604;29;21066;-89
2021/06/03 08:48:21;;;;;;;10.53;7.43;;;22.10;91.10;;;;;;4051531;29;20547;-88
2021/06/03 08:50:28;;;;;;;10.97;7.63;;;22.30;92.00;;;;;;4051497;29;20491;-87
2021/06/03 08:52:30;;;;;;;8.67;7.53;;;22.40;91.60;;;;;;4051327;29;20472;-88
2021/06/03 08:54:34;;;;;;;8.57;7.73;;;22.60;91.50;;;;;;4051112;29;20499;-87
2021/06/03 08:56:36;;;;;;;8.90;8.10;;;22.60;91.40;;;;;;4051638;29;20468;-88
2021/06/03 08:58:40;;;;;;;8.27;7.47;;;22.60;91.10;;;;;;4051964;29;20508;-88
2021/06/03 09:00:46;;;;;;;7.80;7.10;;;22.50;91.70;;;;;;4051452;29;20475;-88
2021/06/03 09:02:49;;;;;;;8.23;7.37;;;22.40;90.50;;;;;;4051401;29;20480;-87
2021/06/03 09:04:52;;;;;;;8.00;7.20;;;22.20;90.50;;;;;;4050559;29;20496;-87
2021/06/03 09:06:57;;;;;;;8.57;7.77;;;22.10;90.80;;;;;;4051638;29;20506;-88
2021/06/03 09:09:00;;;;;;;8.07;7.33;;;22.10;91.10;;;;;;4050911;29;20559;-88
2021/06/03 09:11:05;;;;;;;8.17;7.37;;;22.10;91.30;;;;;;4050611;29;20472;-88
2021/06/03 09:13:11;;;;;;;9.53;8.60;;;22.10;91.30;;;;;;4051254;29;20932;-87
2021/06/03 09:15:17;;;;;;;8.20;7.50;;;22.10;92.10;;;;;;4050708;29;20553;-87
2021/06/03 09:17:19;;;;;;;9.17;7.73;;;22.00;91.40;;;;;;4051505;29;20472;-88
2021/06/03 09:19:22;;;;;;;7.63;6.93;;;22.10;91.30;;;;;;4051319;29;20507;-88
2021/06/03 09:21:28;;;;;;;8.10;7.30;;;22.20;90.90;;;;;;4051672;29;20468;-88
2021/06/03 09:23:33;;;;;;;8.20;7.40;;;22.20;90.50;;;;;;4051055;29;20583;-88
2021/06/03 09:25:39;;;;;;;10.63;7.10;;;22.30;90.50;;;;;;4050787;29;20567;-87
2021/06/03 09:27:41;;;;;;;8.27;7.47;;;22.40;90.10;;;;;;4050892;29;21021;-88
2021/06/03 09:29:44;;;;;;;8.33;6.93;;;22.50;90.10;;;;;;4051403;29;20578;-87
2021/06/03 09:31:47;;;;;;;8.30;7.60;;;22.60;90.30;;;;;;4051238;29;20504;-88
2021/06/03 09:33:58;;;;;;;8.10;7.30;;;22.60;90.40;;;;;;4051422;29;21100;-88
2021/06/03 09:36:01;;;;;;;7.40;6.70;;;22.70;90.30;;;;;;4052185;29;20482;-87
2021/06/03 09:38:04;;;;;;;8.03;7.23;;;22.60;89.80;;;;;;4051892;29;20472;-88
2021/06/03 09:40:20;;;;;;;7.97;7.17;;;22.70;89.80;;;;;;4050959;29;20575;-88
2021/06/03 09:42:23;;;;;;;8.13;7.20;;;22.70;89.70;;;;;;4050878;29;20564;-87
2021/06/03 09:44:28;;;;;;;7.90;7.10;;;22.80;89.70;;;;;;4050396;29;20498;-88
2021/06/03 09:46:36;;;;;;;7.83;7.00;;;22.80;89.70;;;;;;4050879;29;20563;-88
2021/06/03 09:48:40;;;;;;;8.60;7.80;;;22.80;90.00;;;;;;4050759;29;20480;-88
2021/06/03 09:50:42;;;;;;;8.07;7.23;;;22.80;89.60;;;;;;4050602;29;20503;-87
2021/06/03 09:52:45;;;;;;;8.97;7.57;;;22.70;90.00;;;;;;4050170;29;20476;-89
2021/06/03 09:54:51;;;;;;;7.97;7.20;;;22.60;90.00;;;;;;4050228;29;20503;-88
2021/06/03 09:56:57;;;;;;;9.00;7.90;;;22.60;90.40;;;;;;4051682;29;20562;-87
2021/06/03 09:59:01;;;;;;;8.47;7.63;;;22.60;90.60;;;;;;4051233;29;20894;-88
2021/06/03 10:01:03;;;;;;;8.67;7.90;;;22.50;90.70;;;;;;4050352;29;20490;-88
2021/06/03 10:03:06;;;;;;;8.67;7.97;;;22.50;90.30;;;;;;4050747;29;20830;-88
2021/06/03 10:05:14;;;;;;;8.90;8.10;;;22.50;90.60;;;;;;4049332;29;20563;-88
2021/06/03 10:07:19;;;;;;;9.50;7.70;;;22.50;90.70;;;;;;4050371;29;20492;-88
2021/06/03 10:09:41;;;;;;;8.37;7.57;;;22.50;90.30;;;;;;4050564;29;20464;-89
2021/06/03 10:11:48;;;;;;;7.50;6.87;;;22.50;90.30;;;;;;4050243;29;20484;-89
2021/06/03 10:14:10;;;;;;;8.93;8.03;;;22.60;90.80;;;;;;4050522;29;20503;-87
2021/06/03 10:16:30;;;;;;;8.63;7.77;;;22.60;90.60;;;;;;4049650;29;20482;-87
2021/06/03 10:18:33;;;;;;;8.30;7.60;;;22.50;90.80;;;;;;4050226;29;20471;-88
2021/06/03 10:20:39;;;;;;;7.90;7.20;;;22.50;91.00;;;;;;4050585;29;20495;-88
2021/06/03 10:22:44;;;;;;;10.70;7.80;;;22.40;91.20;;;;;;4050228;29;20482;-87
2021/06/03 10:24:53;;;;;;;8.60;7.60;;;22.40;91.30;;;;;;4049251;29;20496;-89
2021/06/03 10:26:56;;;;;;;8.57;7.67;;;22.40;91.40;;;;;;4049931;29;20490;-87
2021/06/03 10:28:59;;;;;;;8.97;7.63;;;22.40;92.00;;;;;;4050659;29;20475;-87
2021/06/03 10:31:08;;;;;;;8.67;7.90;;;22.50;91.10;;;;;;4049728;29;20472;-88
2021/06/03 10:33:12;;;;;;;8.50;7.53;;;22.50;91.20;;;;;;4049751;29;20482;-88
2021/06/03 10:35:18;;;;;;;8.00;6.90;;;22.50;91.90;;;;;;4049505;29;20471;-88
2021/06/03 10:37:22;;;;;;;9.30;8.33;;;22.50;91.40;;;;;;4050385;29;20478;-87
2021/06/03 10:39:27;;;;;;;10.87;9.40;;;22.40;91.60;;;;;;4050010;29;20487;-87
2021/06/03 10:41:29;;;;;;;8.53;7.70;;;22.40;91.60;;;;;;4050019;29;20460;-87
2021/06/03 10:43:36;;;;;;;10.13;8.43;;;22.40;91.90;;;;;;4049668;29;20517;-87
2021/06/03 10:45:40;;;;;;;8.40;7.60;;;22.40;91.90;;;;;;4049217;29;20476;-87